DLH5YU EDDN-EDDF
Flight info
| Callsign | DLH5YU |
|---|---|
| Flight time | 0h 22m |
| Altitude | 24000 |
| Route | SUKAD1G SUKAD DCT PIWAW T159 SPESA SPESA4B |
| Aircraft | A320/M-SDE3FGHIRWY/LB1 |
Departure
| Time | 2026-04-16 09:08 |
|---|---|
| Airport | Nuremberg Airport (EDDN) |
Arrival
| Time | 2026-04-16 09:30 |
|---|---|
| Airport | Frankfurt Main Airport (EDDF) |
| Time | Latitude | Longitude | Altitude | Speed | Heading |
|---|---|---|---|---|---|
| 2026-04-16 08:31 | 49.49506 | 11.07856 | 1029 ft | 0 kts | 188° |
| 2026-04-16 09:00 | 49.49513 | 11.07858 | 1028 ft | 2 kts | 188° |
| 2026-04-16 09:00 | 49.49533 | 11.07862 | 1029 ft | 3 kts | 187° |
| 2026-04-16 09:00 | 49.49553 | 11.07866 | 1030 ft | 3 kts | 185° |
| 2026-04-16 09:01 | 49.49587 | 11.07868 | 1032 ft | 1 kts | 179° |
| 2026-04-16 09:01 | 49.49591 | 11.07868 | 1030 ft | 0 kts | 179° |
| 2026-04-16 09:03 | 49.49583 | 11.07875 | 1032 ft | 3 kts | 142° |
| 2026-04-16 09:03 | 49.49567 | 11.07962 | 1030 ft | 15 kts | 99° |
| 2026-04-16 09:04 | 49.49552 | 11.08116 | 1028 ft | 14 kts | 98° |
| 2026-04-16 09:04 | 49.49539 | 11.08249 | 1031 ft | 11 kts | 98° |
| 2026-04-16 09:04 | 49.49563 | 11.08357 | 1032 ft | 16 kts | 24° |
| 2026-04-16 09:04 | 49.49610 | 11.08495 | 1032 ft | 16 kts | 98° |
| 2026-04-16 09:05 | 49.49594 | 11.08653 | 1034 ft | 14 kts | 99° |
| 2026-04-16 09:05 | 49.49581 | 11.08781 | 1035 ft | 11 kts | 98° |
| 2026-04-16 09:05 | 49.49566 | 11.08944 | 1037 ft | 18 kts | 98° |
| 2026-04-16 09:05 | 49.49546 | 11.09147 | 1038 ft | 19 kts | 98° |
| 2026-04-16 09:06 | 49.49533 | 11.09325 | 1041 ft | 14 kts | 86° |
| 2026-04-16 09:06 | 49.49574 | 11.09446 | 1042 ft | 12 kts | 54° |
| 2026-04-16 09:06 | 49.49592 | 11.09485 | 1042 ft | 0 kts | 54° |
| 2026-04-16 09:06 | 49.49612 | 11.09524 | 1043 ft | 7 kts | 48° |
| 2026-04-16 09:07 | 49.49652 | 11.09566 | 1045 ft | 7 kts | 17° |
| 2026-04-16 09:07 | 49.49699 | 11.09532 | 1045 ft | 10 kts | 294° |
| 2026-04-16 09:07 | 49.49715 | 11.09391 | 1042 ft | 17 kts | 279° |
| 2026-04-16 09:07 | 49.49749 | 11.09028 | 1038 ft | 68 kts | 279° |
| 2026-04-16 09:08 | 49.49856 | 11.07943 | 1034 ft | 133 kts | 279° |
| 2026-04-16 09:08 | 49.50014 | 11.06348 | 1383 ft | 152 kts | 278° |
| 2026-04-16 09:08 | 49.50169 | 11.04759 | 2108 ft | 153 kts | 278° |
| 2026-04-16 09:08 | 49.50333 | 11.03077 | 2602 ft | 166 kts | 278° |
| 2026-04-16 09:09 | 49.50510 | 11.01258 | 3067 ft | 181 kts | 279° |
| 2026-04-16 09:09 | 49.50710 | 10.99215 | 3398 ft | 203 kts | 279° |
| 2026-04-16 09:09 | 49.50928 | 10.96993 | 3784 ft | 223 kts | 279° |
| 2026-04-16 09:09 | 49.51171 | 10.94504 | 4208 ft | 247 kts | 279° |
| 2026-04-16 09:10 | 49.51431 | 10.91831 | 4998 ft | 257 kts | 279° |
| 2026-04-16 09:10 | 49.51695 | 10.89093 | 5922 ft | 261 kts | 278° |
| 2026-04-16 09:10 | 49.51989 | 10.86322 | 6839 ft | 265 kts | 284° |
| 2026-04-16 09:10 | 49.52678 | 10.83658 | 7706 ft | 269 kts | 294° |
| 2026-04-16 09:11 | 49.53405 | 10.81019 | 8568 ft | 272 kts | 291° |
| 2026-04-16 09:11 | 49.54071 | 10.78269 | 9473 ft | 275 kts | 290° |
| 2026-04-16 09:11 | 49.54709 | 10.75465 | 10355 ft | 279 kts | 290° |
| 2026-04-16 09:11 | 49.55367 | 10.72530 | 10736 ft | 300 kts | 289° |
| 2026-04-16 09:12 | 49.56076 | 10.69374 | 10995 ft | 324 kts | 289° |
| 2026-04-16 09:12 | 49.56837 | 10.66018 | 11268 ft | 344 kts | 289° |
| 2026-04-16 09:12 | 49.57646 | 10.62501 | 11880 ft | 351 kts | 290° |
| 2026-04-16 09:12 | 49.58470 | 10.58940 | 12636 ft | 354 kts | 289° |
| 2026-04-16 09:13 | 49.59302 | 10.55344 | 13404 ft | 357 kts | 289° |
| 2026-04-16 09:13 | 49.60139 | 10.51713 | 14151 ft | 360 kts | 289° |
| 2026-04-16 09:13 | 49.60980 | 10.48053 | 14809 ft | 363 kts | 289° |
| 2026-04-16 09:13 | 49.61825 | 10.44369 | 15455 ft | 366 kts | 289° |
| 2026-04-16 09:14 | 49.62668 | 10.40687 | 16094 ft | 369 kts | 289° |
| 2026-04-16 09:14 | 49.63526 | 10.36923 | 16736 ft | 372 kts | 289° |
| 2026-04-16 09:14 | 49.64387 | 10.33137 | 17384 ft | 376 kts | 289° |
| 2026-04-16 09:14 | 49.65259 | 10.29312 | 18005 ft | 379 kts | 289° |
| 2026-04-16 09:15 | 49.65839 | 10.26767 | 18435 ft | 381 kts | 289° |
| 2026-04-16 09:15 | 49.66725 | 10.22873 | 19005 ft | 384 kts | 289° |
| 2026-04-16 09:15 | 49.67903 | 10.17686 | 19768 ft | 387 kts | 289° |
| 2026-04-16 09:15 | 49.68492 | 10.15078 | 20131 ft | 388 kts | 289° |
| 2026-04-16 09:16 | 49.69678 | 10.09813 | 20859 ft | 391 kts | 289° |
| 2026-04-16 09:16 | 49.70282 | 10.07129 | 21113 ft | 392 kts | 289° |
| 2026-04-16 09:16 | 49.71166 | 10.03188 | 21221 ft | 391 kts | 289° |
| 2026-04-16 09:16 | 49.72060 | 9.99202 | 21242 ft | 391 kts | 289° |
| 2026-04-16 09:17 | 49.72952 | 9.95228 | 21113 ft | 394 kts | 289° |
| 2026-04-16 09:17 | 49.73872 | 9.91121 | 20855 ft | 409 kts | 289° |
| 2026-04-16 09:17 | 49.74792 | 9.86989 | 20610 ft | 413 kts | 288° |
| 2026-04-16 09:17 | 49.75730 | 9.82763 | 20298 ft | 413 kts | 288° |
| 2026-04-16 09:18 | 49.76656 | 9.78566 | 19562 ft | 410 kts | 289° |
| 2026-04-16 09:18 | 49.77846 | 9.74583 | 18856 ft | 408 kts | 301° |
| 2026-04-16 09:18 | 49.79405 | 9.70919 | 18109 ft | 406 kts | 302° |
| 2026-04-16 09:18 | 49.80951 | 9.67328 | 17319 ft | 404 kts | 303° |
| 2026-04-16 09:19 | 49.82523 | 9.63729 | 16537 ft | 402 kts | 303° |
| 2026-04-16 09:19 | 49.84089 | 9.60150 | 15781 ft | 400 kts | 303° |
| 2026-04-16 09:19 | 49.85649 | 9.56585 | 15036 ft | 399 kts | 303° |
| 2026-04-16 09:19 | 49.87210 | 9.53026 | 14307 ft | 397 kts | 303° |
| 2026-04-16 09:20 | 49.88768 | 9.49467 | 13540 ft | 395 kts | 303° |
| 2026-04-16 09:20 | 49.90284 | 9.45990 | 12756 ft | 393 kts | 303° |
| 2026-04-16 09:20 | 49.91802 | 9.42471 | 11980 ft | 390 kts | 303° |
| 2026-04-16 09:20 | 49.93297 | 9.38964 | 11221 ft | 386 kts | 303° |
| 2026-04-16 09:21 | 49.94719 | 9.35599 | 10952 ft | 359 kts | 303° |
| 2026-04-16 09:21 | 49.96033 | 9.32481 | 10660 ft | 331 kts | 303° |
| 2026-04-16 09:21 | 49.97253 | 9.29580 | 10257 ft | 311 kts | 303° |
| 2026-04-16 09:21 | 49.98404 | 9.26826 | 9813 ft | 296 kts | 303° |
| 2026-04-16 09:22 | 49.99483 | 9.24230 | 9365 ft | 282 kts | 303° |
| 2026-04-16 09:22 | 50.00531 | 9.21717 | 8917 ft | 271 kts | 303° |
| 2026-04-16 09:22 | 50.01543 | 9.19299 | 8486 ft | 264 kts | 303° |
| 2026-04-16 09:22 | 50.02540 | 9.16920 | 8059 ft | 265 kts | 303° |
| 2026-04-16 09:23 | 50.03553 | 9.14516 | 7634 ft | 266 kts | 303° |
| 2026-04-16 09:23 | 50.04581 | 9.12113 | 7239 ft | 264 kts | 303° |
| 2026-04-16 09:23 | 50.05599 | 9.09763 | 6938 ft | 260 kts | 303° |
| 2026-04-16 09:23 | 50.06608 | 9.07444 | 6652 ft | 256 kts | 303° |
| 2026-04-16 09:24 | 50.07607 | 9.05161 | 6344 ft | 253 kts | 303° |
| 2026-04-16 09:24 | 50.08582 | 9.02937 | 6029 ft | 249 kts | 303° |
| 2026-04-16 09:24 | 50.09422 | 9.00631 | 5726 ft | 243 kts | 289° |
| 2026-04-16 09:24 | 50.09914 | 8.98124 | 5422 ft | 239 kts | 284° |
| 2026-04-16 09:25 | 50.10343 | 8.95643 | 5111 ft | 236 kts | 284° |
| 2026-04-16 09:25 | 50.10766 | 8.93183 | 4806 ft | 234 kts | 284° |
| 2026-04-16 09:25 | 50.11149 | 8.90730 | 4559 ft | 229 kts | 276° |
| 2026-04-16 09:25 | 50.11019 | 8.88320 | 4324 ft | 226 kts | 252° |
| 2026-04-16 09:26 | 50.10485 | 8.86020 | 4045 ft | 224 kts | 250° |
| 2026-04-16 09:26 | 50.09947 | 8.83755 | 3758 ft | 222 kts | 250° |
| 2026-04-16 09:26 | 50.09415 | 8.81501 | 3458 ft | 220 kts | 250° |
| 2026-04-16 09:26 | 50.08891 | 8.79280 | 3165 ft | 220 kts | 250° |
| 2026-04-16 09:27 | 50.08368 | 8.77066 | 2861 ft | 210 kts | 250° |
| 2026-04-16 09:27 | 50.07888 | 8.75032 | 2601 ft | 190 kts | 250° |
| 2026-04-16 09:27 | 50.07458 | 8.73215 | 2363 ft | 174 kts | 250° |
| 2026-04-16 09:27 | 50.07063 | 8.71544 | 2137 ft | 155 kts | 250° |
| 2026-04-16 09:28 | 50.06709 | 8.70048 | 1922 ft | 141 kts | 250° |
| 2026-04-16 09:28 | 50.06375 | 8.68641 | 1740 ft | 136 kts | 250° |
| 2026-04-16 09:28 | 50.06050 | 8.67266 | 1560 ft | 134 kts | 249° |
| 2026-04-16 09:28 | 50.05727 | 8.65905 | 1376 ft | 134 kts | 249° |
| 2026-04-16 09:29 | 50.05403 | 8.64544 | 1193 ft | 134 kts | 250° |
| 2026-04-16 09:29 | 50.05088 | 8.63215 | 1020 ft | 131 kts | 249° |
| 2026-04-16 09:29 | 50.04772 | 8.61882 | 829 ft | 131 kts | 249° |
| 2026-04-16 09:29 | 50.04456 | 8.60544 | 669 ft | 133 kts | 249° |
| 2026-04-16 09:30 | 50.04136 | 8.59198 | 500 ft | 133 kts | 248° |
| 2026-04-16 09:30 | 50.03815 | 8.57861 | 375 ft | 125 kts | 250° |
| 2026-04-16 09:30 | 50.03551 | 8.56755 | 350 ft | 87 kts | 249° |
| 2026-04-16 09:30 | 50.03441 | 8.56262 | 353 ft | 35 kts | 259° |
| 2026-04-16 09:31 | 50.03455 | 8.55886 | 345 ft | 29 kts | 281° |
| 2026-04-16 09:31 | 50.03468 | 8.55774 | 351 ft | 3 kts | 279° |
| 2026-04-16 09:31 | 50.03468 | 8.55771 | 351 ft | 0 kts | 279° |
| 2026-04-16 09:31 | 50.03470 | 8.55751 | 344 ft | 6 kts | 279° |
| 2026-04-16 09:32 | 50.03482 | 8.55646 | 349 ft | 13 kts | 280° |
| 2026-04-16 09:32 | 50.03494 | 8.55495 | 345 ft | 15 kts | 265° |
| 2026-04-16 09:32 | 50.03457 | 8.55326 | 348 ft | 18 kts | 249° |
| 2026-04-16 09:32 | 50.03411 | 8.55134 | 348 ft | 20 kts | 250° |
| 2026-04-16 09:33 | 50.03406 | 8.54929 | 350 ft | 20 kts | 294° |
| 2026-04-16 09:33 | 50.03474 | 8.54832 | 345 ft | 1 kts | 340° |
| 2026-04-16 09:34 | 50.03517 | 8.54809 | 345 ft | 13 kts | 340° |
| 2026-04-16 09:34 | 50.03633 | 8.54743 | 348 ft | 22 kts | 339° |
| 2026-04-16 09:35 | 50.03761 | 8.54754 | 351 ft | 18 kts | 54° |
| 2026-04-16 09:35 | 50.03802 | 8.54920 | 352 ft | 15 kts | 70° |
| 2026-04-16 09:35 | 50.03861 | 8.55024 | 350 ft | 12 kts | 5° |
| 2026-04-16 09:35 | 50.03931 | 8.54994 | 356 ft | 9 kts | 341° |
| 2026-04-16 09:36 | 50.03951 | 8.54983 | 353 ft | 0 kts | 341° |
| 2026-04-16 09:36 | 50.03963 | 8.54977 | 355 ft | 6 kts | 341° |
| 2026-04-16 09:36 | 50.04006 | 8.54978 | 357 ft | 13 kts | 20° |
| 2026-04-16 09:37 | 50.04025 | 8.55070 | 356 ft | 8 kts | 147° |
| 2026-04-16 09:37 | 50.03978 | 8.55098 | 359 ft | 7 kts | 160° |
| 2026-04-16 09:37 | 50.03943 | 8.55117 | 355 ft | 0 kts | 159° |